sensor_id;sensor_type;location;lat;lon;timestamp;P1;durP1;ratioP1;P2;durP2;ratioP2
10529;SDS011;5313;48.834;9.228;2022-08-01T00:01:41;2.03;;;1.80;;
10529;SDS011;5313;48.834;9.228;2022-08-01T00:04:07;2.67;;;2.33;;
10529;SDS011;5313;48.834;9.228;2022-08-01T00:06:32;3.77;;;1.97;;
10529;SDS011;5313;48.834;9.228;2022-08-01T00:08:58;3.20;;;2.30;;
10529;SDS011;5313;48.834;9.228;2022-08-01T00:11:23;2.93;;;1.90;;
10529;SDS011;5313;48.834;9.228;2022-08-01T00:13:49;3.47;;;2.00;;
10529;SDS011;5313;48.834;9.228;2022-08-01T00:16:15;2.27;;;1.83;;
10529;SDS011;5313;48.834;9.228;2022-08-01T00:18:41;3.97;;;1.90;;
10529;SDS011;5313;48.834;9.228;2022-08-01T00:21:06;2.77;;;2.00;;
10529;SDS011;5313;48.834;9.228;2022-08-01T00:23:32;3.67;;;1.90;;
10529;SDS011;5313;48.834;9.228;2022-08-01T00:25:58;3.90;;;1.87;;
10529;SDS011;5313;48.834;9.228;2022-08-01T00:28:23;3.70;;;2.10;;
10529;SDS011;5313;48.834;9.228;2022-08-01T00:30:49;3.27;;;2.10;;
10529;SDS011;5313;48.834;9.228;2022-08-01T00:33:14;2.73;;;2.00;;
10529;SDS011;5313;48.834;9.228;2022-08-01T00:35:40;2.53;;;2.00;;
10529;SDS011;5313;48.834;9.228;2022-08-01T00:38:05;2.40;;;2.20;;
10529;SDS011;5313;48.834;9.228;2022-08-01T00:40:31;4.13;;;2.27;;
10529;SDS011;5313;48.834;9.228;2022-08-01T00:42:56;2.47;;;2.07;;
10529;SDS011;5313;48.834;9.228;2022-08-01T00:45:22;4.93;;;2.03;;
10529;SDS011;5313;48.834;9.228;2022-08-01T00:47:47;2.10;;;1.90;;
10529;SDS011;5313;48.834;9.228;2022-08-01T00:50:13;2.37;;;2.17;;
10529;SDS011;5313;48.834;9.228;2022-08-01T00:52:39;2.23;;;1.80;;
10529;SDS011;5313;48.834;9.228;2022-08-01T00:55:05;2.23;;;1.80;;
10529;SDS011;5313;48.834;9.228;2022-08-01T00:57:32;3.17;;;2.23;;
10529;SDS011;5313;48.834;9.228;2022-08-01T00:59:57;3.27;;;1.80;;
10529;SDS011;5313;48.834;9.228;2022-08-01T01:02:23;2.40;;;2.03;;
10529;SDS011;5313;48.834;9.228;2022-08-01T01:04:48;2.33;;;2.00;;
10529;SDS011;5313;48.834;9.228;2022-08-01T01:10:00;2.77;;;1.90;;
10529;SDS011;5313;48.834;9.228;2022-08-01T01:15:19;2.63;;;2.10;;
10529;SDS011;5313;48.834;9.228;2022-08-01T01:17:52;2.20;;;1.93;;
10529;SDS011;5313;48.834;9.228;2022-08-01T01:20:27;3.20;;;2.50;;
10529;SDS011;5313;48.834;9.228;2022-08-01T01:23:05;2.87;;;2.10;;
10529;SDS011;5313;48.834;9.228;2022-08-01T01:29:00;3.93;;;2.30;;
10529;SDS011;5313;48.834;9.228;2022-08-01T01:31:42;2.47;;;2.10;;
10529;SDS011;5313;48.834;9.228;2022-08-01T01:34:32;3.10;;;2.30;;
10529;SDS011;5313;48.834;9.228;2022-08-01T01:37:01;3.17;;;2.20;;
10529;SDS011;5313;48.834;9.228;2022-08-01T01:39:29;2.53;;;2.10;;
10529;SDS011;5313;48.834;9.228;2022-08-01T01:41:55;3.13;;;2.43;;
10529;SDS011;5313;48.834;9.228;2022-08-01T01:44:22;2.70;;;2.20;;
10529;SDS011;5313;48.834;9.228;2022-08-01T01:46:49;2.30;;;2.10;;
10529;SDS011;5313;48.834;9.228;2022-08-01T01:49:18;2.30;;;2.00;;
10529;SDS011;5313;48.834;9.228;2022-08-01T01:51:47;2.43;;;2.20;;
10529;SDS011;5313;48.834;9.228;2022-08-01T01:54:15;3.30;;;2.20;;
10529;SDS011;5313;48.834;9.228;2022-08-01T01:56:40;2.63;;;2.20;;
10529;SDS011;5313;48.834;9.228;2022-08-01T01:59:13;4.27;;;2.03;;
10529;SDS011;5313;48.834;9.228;2022-08-01T02:01:45;3.13;;;2.17;;
10529;SDS011;5313;48.834;9.228;2022-08-01T02:04:14;2.37;;;2.17;;
10529;SDS011;5313;48.834;9.228;2022-08-01T02:06:41;4.27;;;2.30;;
10529;SDS011;5313;48.834;9.228;2022-08-01T02:09:08;3.57;;;2.30;;
10529;SDS011;5313;48.834;9.228;2022-08-01T02:11:35;4.60;;;2.27;;
10529;SDS011;5313;48.834;9.228;2022-08-01T02:14:03;3.30;;;2.30;;
10529;SDS011;5313;48.834;9.228;2022-08-01T02:16:31;3.43;;;2.33;;
10529;SDS011;5313;48.834;9.228;2022-08-01T02:18:59;2.50;;;2.30;;
10529;SDS011;5313;48.834;9.228;2022-08-01T02:21:37;4.77;;;2.30;;
10529;SDS011;5313;48.834;9.228;2022-08-01T02:27:09;3.57;;;2.17;;
10529;SDS011;5313;48.834;9.228;2022-08-01T02:29:39;3.03;;;2.30;;
10529;SDS011;5313;48.834;9.228;2022-08-01T02:32:12;4.33;;;2.33;;
10529;SDS011;5313;48.834;9.228;2022-08-01T02:34:42;2.90;;;2.10;;
10529;SDS011;5313;48.834;9.228;2022-08-01T02:37:14;4.37;;;2.70;;
10529;SDS011;5313;48.834;9.228;2022-08-01T02:39:40;2.93;;;2.30;;
10529;SDS011;5313;48.834;9.228;2022-08-01T02:42:08;3.03;;;2.33;;
10529;SDS011;5313;48.834;9.228;2022-08-01T02:44:39;3.60;;;2.50;;
10529;SDS011;5313;48.834;9.228;2022-08-01T02:47:07;5.10;;;2.30;;
10529;SDS011;5313;48.834;9.228;2022-08-01T02:49:36;2.40;;;2.20;;
10529;SDS011;5313;48.834;9.228;2022-08-01T02:52:08;2.80;;;2.30;;
10529;SDS011;5313;48.834;9.228;2022-08-01T02:54:37;2.90;;;2.60;;
10529;SDS011;5313;48.834;9.228;2022-08-01T02:57:05;3.50;;;2.50;;
10529;SDS011;5313;48.834;9.228;2022-08-01T02:59:33;3.07;;;2.47;;
10529;SDS011;5313;48.834;9.228;2022-08-01T03:02:02;4.53;;;2.73;;
10529;SDS011;5313;48.834;9.228;2022-08-01T03:04:29;6.70;;;2.53;;
10529;SDS011;5313;48.834;9.228;2022-08-01T03:06:57;2.80;;;2.40;;
10529;SDS011;5313;48.834;9.228;2022-08-01T03:09:25;4.90;;;2.40;;
10529;SDS011;5313;48.834;9.228;2022-08-01T03:11:52;4.63;;;2.93;;
10529;SDS011;5313;48.834;9.228;2022-08-01T03:14:18;3.40;;;2.73;;
10529;SDS011;5313;48.834;9.228;2022-08-01T03:16:48;3.30;;;2.60;;
10529;SDS011;5313;48.834;9.228;2022-08-01T03:19:16;3.33;;;2.40;;
10529;SDS011;5313;48.834;9.228;2022-08-01T03:21:43;2.40;;;2.20;;
10529;SDS011;5313;48.834;9.228;2022-08-01T03:24:09;4.13;;;2.20;;
10529;SDS011;5313;48.834;9.228;2022-08-01T03:26:36;2.37;;;2.17;;
10529;SDS011;5313;48.834;9.228;2022-08-01T03:29:06;3.83;;;2.50;;
10529;SDS011;5313;48.834;9.228;2022-08-01T03:31:35;5.33;;;2.30;;
10529;SDS011;5313;48.834;9.228;2022-08-01T03:34:03;2.70;;;2.50;;
10529;SDS011;5313;48.834;9.228;2022-08-01T03:36:29;3.20;;;2.47;;
10529;SDS011;5313;48.834;9.228;2022-08-01T03:38:57;4.03;;;2.43;;
10529;SDS011;5313;48.834;9.228;2022-08-01T03:41:26;4.67;;;2.60;;
10529;SDS011;5313;48.834;9.228;2022-08-01T03:43:58;2.53;;;2.33;;
10529;SDS011;5313;48.834;9.228;2022-08-01T03:46:29;2.73;;;2.20;;
10529;SDS011;5313;48.834;9.228;2022-08-01T03:49:00;3.33;;;2.00;;
10529;SDS011;5313;48.834;9.228;2022-08-01T03:51:30;3.30;;;2.20;;
10529;SDS011;5313;48.834;9.228;2022-08-01T03:53:56;4.63;;;2.53;;
10529;SDS011;5313;48.834;9.228;2022-08-01T03:56:25;3.60;;;2.33;;
10529;SDS011;5313;48.834;9.228;2022-08-01T03:58:52;2.80;;;2.20;;
10529;SDS011;5313;48.834;9.228;2022-08-01T04:01:19;5.13;;;2.23;;
10529;SDS011;5313;48.834;9.228;2022-08-01T04:03:45;3.33;;;2.23;;
10529;SDS011;5313;48.834;9.228;2022-08-01T04:06:11;3.67;;;2.60;;
10529;SDS011;5313;48.834;9.228;2022-08-01T04:08:39;2.73;;;2.43;;
10529;SDS011;5313;48.834;9.228;2022-08-01T04:11:05;2.93;;;2.30;;
10529;SDS011;5313;48.834;9.228;2022-08-01T04:13:33;2.30;;;2.10;;
10529;SDS011;5313;48.834;9.228;2022-08-01T04:15:59;3.70;;;2.80;;
10529;SDS011;5313;48.834;9.228;2022-08-01T04:18:25;3.30;;;2.43;;
10529;SDS011;5313;48.834;9.228;2022-08-01T04:20:50;4.03;;;2.30;;
10529;SDS011;5313;48.834;9.228;2022-08-01T04:23:16;3.87;;;2.40;;
10529;SDS011;5313;48.834;9.228;2022-08-01T04:25:45;3.83;;;2.40;;
10529;SDS011;5313;48.834;9.228;2022-08-01T04:28:12;5.67;;;2.63;;
10529;SDS011;5313;48.834;9.228;2022-08-01T04:30:41;4.33;;;3.57;;
10529;SDS011;5313;48.834;9.228;2022-08-01T04:33:10;4.60;;;3.40;;
10529;SDS011;5313;48.834;9.228;2022-08-01T04:35:41;4.70;;;4.00;;
10529;SDS011;5313;48.834;9.228;2022-08-01T04:38:10;5.27;;;4.23;;
10529;SDS011;5313;48.834;9.228;2022-08-01T04:40:37;8.33;;;4.13;;
10529;SDS011;5313;48.834;9.228;2022-08-01T04:43:05;10.40;;;6.07;;
10529;SDS011;5313;48.834;9.228;2022-08-01T04:45:31;8.10;;;4.60;;
10529;SDS011;5313;48.834;9.228;2022-08-01T04:47:59;6.57;;;4.67;;
10529;SDS011;5313;48.834;9.228;2022-08-01T04:50:25;5.17;;;4.10;;
10529;SDS011;5313;48.834;9.228;2022-08-01T04:52:50;4.70;;;2.90;;
10529;SDS011;5313;48.834;9.228;2022-08-01T04:55:16;3.57;;;2.63;;
10529;SDS011;5313;48.834;9.228;2022-08-01T04:57:42;3.43;;;2.13;;
10529;SDS011;5313;48.834;9.228;2022-08-01T05:00:10;2.20;;;2.00;;
10529;SDS011;5313;48.834;9.228;2022-08-01T05:02:36;2.20;;;1.83;;
10529;SDS011;5313;48.834;9.228;2022-08-01T05:05:01;2.40;;;2.20;;
10529;SDS011;5313;48.834;9.228;2022-08-01T05:07:27;1.70;;;1.60;;
10529;SDS011;5313;48.834;9.228;2022-08-01T05:09:53;2.07;;;1.87;;
10529;SDS011;5313;48.834;9.228;2022-08-01T05:12:18;3.67;;;2.20;;
10529;SDS011;5313;48.834;9.228;2022-08-01T05:14:45;2.93;;;1.63;;
10529;SDS011;5313;48.834;9.228;2022-08-01T05:17:11;2.33;;;1.87;;
10529;SDS011;5313;48.834;9.228;2022-08-01T05:19:37;3.53;;;1.87;;
10529;SDS011;5313;48.834;9.228;2022-08-01T05:22:05;2.70;;;1.93;;
10529;SDS011;5313;48.834;9.228;2022-08-01T05:24:36;4.03;;;1.60;;
10529;SDS011;5313;48.834;9.228;2022-08-01T05:27:04;2.13;;;1.80;;
10529;SDS011;5313;48.834;9.228;2022-08-01T05:29:31;1.93;;;1.73;;
10529;SDS011;5313;48.834;9.228;2022-08-01T05:31:57;1.90;;;1.50;;
10529;SDS011;5313;48.834;9.228;2022-08-01T05:34:24;2.43;;;1.90;;
10529;SDS011;5313;48.834;9.228;2022-08-01T05:36:50;3.73;;;1.50;;
10529;SDS011;5313;48.834;9.228;2022-08-01T05:39:15;2.77;;;1.90;;
10529;SDS011;5313;48.834;9.228;2022-08-01T05:41:41;2.70;;;1.83;;
10529;SDS011;5313;48.834;9.228;2022-08-01T05:44:07;5.63;;;3.03;;
10529;SDS011;5313;48.834;9.228;2022-08-01T05:46:33;3.10;;;1.63;;
10529;SDS011;5313;48.834;9.228;2022-08-01T05:49:00;3.17;;;2.43;;
10529;SDS011;5313;48.834;9.228;2022-08-01T05:51:27;2.63;;;2.03;;
10529;SDS011;5313;48.834;9.228;2022-08-01T05:53:52;2.80;;;2.53;;
10529;SDS011;5313;48.834;9.228;2022-08-01T05:56:18;1.83;;;1.60;;
10529;SDS011;5313;48.834;9.228;2022-08-01T05:58:45;2.40;;;1.63;;
10529;SDS011;5313;48.834;9.228;2022-08-01T06:01:10;2.37;;;1.90;;
10529;SDS011;5313;48.834;9.228;2022-08-01T06:03:36;1.60;;;1.27;;
10529;SDS011;5313;48.834;9.228;2022-08-01T06:06:01;1.57;;;1.43;;
10529;SDS011;5313;48.834;9.228;2022-08-01T06:08:28;2.33;;;1.67;;
10529;SDS011;5313;48.834;9.228;2022-08-01T06:10:53;2.07;;;1.47;;
10529;SDS011;5313;48.834;9.228;2022-08-01T06:13:19;3.20;;;1.77;;
10529;SDS011;5313;48.834;9.228;2022-08-01T06:15:46;2.53;;;1.70;;
10529;SDS011;5313;48.834;9.228;2022-08-01T06:18:12;1.77;;;1.57;;
10529;SDS011;5313;48.834;9.228;2022-08-01T06:20:38;3.17;;;2.00;;
10529;SDS011;5313;48.834;9.228;2022-08-01T06:23:03;1.67;;;1.40;;
10529;SDS011;5313;48.834;9.228;2022-08-01T06:25:29;1.70;;;1.33;;
10529;SDS011;5313;48.834;9.228;2022-08-01T06:27:54;2.17;;;1.60;;
10529;SDS011;5313;48.834;9.228;2022-08-01T06:30:20;2.50;;;1.37;;
10529;SDS011;5313;48.834;9.228;2022-08-01T06:32:46;1.30;;;1.20;;
10529;SDS011;5313;48.834;9.228;2022-08-01T06:35:12;2.97;;;1.50;;
10529;SDS011;5313;48.834;9.228;2022-08-01T06:37:38;2.93;;;1.30;;
10529;SDS011;5313;48.834;9.228;2022-08-01T06:40:04;2.13;;;1.10;;
10529;SDS011;5313;48.834;9.228;2022-08-01T06:42:32;1.27;;;1.17;;
10529;SDS011;5313;48.834;9.228;2022-08-01T06:45:03;2.60;;;1.30;;
10529;SDS011;5313;48.834;9.228;2022-08-01T06:47:30;3.20;;;1.30;;
10529;SDS011;5313;48.834;9.228;2022-08-01T06:49:55;1.30;;;1.20;;
10529;SDS011;5313;48.834;9.228;2022-08-01T06:52:21;1.67;;;1.10;;
10529;SDS011;5313;48.834;9.228;2022-08-01T06:54:46;2.10;;;1.33;;
10529;SDS011;5313;48.834;9.228;2022-08-01T06:57:12;3.20;;;1.40;;
10529;SDS011;5313;48.834;9.228;2022-08-01T06:59:38;2.47;;;1.20;;
10529;SDS011;5313;48.834;9.228;2022-08-01T07:02:03;1.93;;;1.20;;
10529;SDS011;5313;48.834;9.228;2022-08-01T07:04:29;1.97;;;1.30;;
10529;SDS011;5313;48.834;9.228;2022-08-01T07:06:55;1.97;;;1.27;;
10529;SDS011;5313;48.834;9.228;2022-08-01T07:09:21;1.83;;;1.20;;
10529;SDS011;5313;48.834;9.228;2022-08-01T07:11:47;1.40;;;1.30;;
10529;SDS011;5313;48.834;9.228;2022-08-01T07:14:12;2.03;;;1.50;;
10529;SDS011;5313;48.834;9.228;2022-08-01T07:16:38;1.40;;;1.20;;
10529;SDS011;5313;48.834;9.228;2022-08-01T07:19:03;2.27;;;1.20;;
10529;SDS011;5313;48.834;9.228;2022-08-01T07:21:29;3.30;;;1.40;;
10529;SDS011;5313;48.834;9.228;2022-08-01T07:23:54;2.23;;;1.20;;
10529;SDS011;5313;48.834;9.228;2022-08-01T07:26:20;2.47;;;1.33;;
10529;SDS011;5313;48.834;9.228;2022-08-01T07:28:45;2.03;;;1.30;;
10529;SDS011;5313;48.834;9.228;2022-08-01T07:31:12;2.70;;;1.30;;
10529;SDS011;5313;48.834;9.228;2022-08-01T07:33:38;2.23;;;1.30;;
10529;SDS011;5313;48.834;9.228;2022-08-01T07:36:03;3.93;;;1.30;;
10529;SDS011;5313;48.834;9.228;2022-08-01T07:38:29;2.47;;;1.50;;
10529;SDS011;5313;48.834;9.228;2022-08-01T07:40:54;1.90;;;1.40;;
10529;SDS011;5313;48.834;9.228;2022-08-01T07:43:20;1.73;;;1.40;;
10529;SDS011;5313;48.834;9.228;2022-08-01T07:45:46;4.43;;;1.50;;
10529;SDS011;5313;48.834;9.228;2022-08-01T07:48:11;1.93;;;1.20;;
10529;SDS011;5313;48.834;9.228;2022-08-01T07:50:37;2.10;;;1.20;;
10529;SDS011;5313;48.834;9.228;2022-08-01T07:53:02;3.07;;;1.50;;
10529;SDS011;5313;48.834;9.228;2022-08-01T07:55:28;1.60;;;1.30;;
10529;SDS011;5313;48.834;9.228;2022-08-01T07:57:54;2.50;;;1.50;;
10529;SDS011;5313;48.834;9.228;2022-08-01T08:00:19;2.40;;;1.50;;
10529;SDS011;5313;48.834;9.228;2022-08-01T08:02:45;1.67;;;1.40;;
10529;SDS011;5313;48.834;9.228;2022-08-01T08:05:11;1.60;;;1.50;;
10529;SDS011;5313;48.834;9.228;2022-08-01T08:07:37;2.33;;;1.27;;
10529;SDS011;5313;48.834;9.228;2022-08-01T08:10:03;1.97;;;1.57;;
10529;SDS011;5313;48.834;9.228;2022-08-01T08:12:30;2.27;;;1.50;;
10529;SDS011;5313;48.834;9.228;2022-08-01T08:14:56;2.00;;;1.40;;
10529;SDS011;5313;48.834;9.228;2022-08-01T08:17:26;3.20;;;1.50;;
10529;SDS011;5313;48.834;9.228;2022-08-01T08:19:52;1.63;;;1.20;;
10529;SDS011;5313;48.834;9.228;2022-08-01T08:22:18;1.67;;;1.37;;
10529;SDS011;5313;48.834;9.228;2022-08-01T08:24:44;2.60;;;1.40;;
10529;SDS011;5313;48.834;9.228;2022-08-01T08:27:09;3.63;;;1.37;;
10529;SDS011;5313;48.834;9.228;2022-08-01T08:29:36;3.40;;;1.47;;
10529;SDS011;5313;48.834;9.228;2022-08-01T08:32:02;4.93;;;1.60;;
10529;SDS011;5313;48.834;9.228;2022-08-01T08:34:28;1.57;;;1.40;;
10529;SDS011;5313;48.834;9.228;2022-08-01T08:36:54;3.80;;;1.70;;
10529;SDS011;5313;48.834;9.228;2022-08-01T08:39:21;5.60;;;1.50;;
10529;SDS011;5313;48.834;9.228;2022-08-01T08:41:47;2.83;;;1.43;;
10529;SDS011;5313;48.834;9.228;2022-08-01T08:44:13;2.77;;;1.70;;
10529;SDS011;5313;48.834;9.228;2022-08-01T08:46:43;3.20;;;1.50;;
10529;SDS011;5313;48.834;9.228;2022-08-01T08:49:11;3.87;;;1.50;;
10529;SDS011;5313;48.834;9.228;2022-08-01T08:51:40;2.33;;;1.50;;
10529;SDS011;5313;48.834;9.228;2022-08-01T08:54:07;1.40;;;1.30;;
10529;SDS011;5313;48.834;9.228;2022-08-01T08:56:35;2.00;;;1.40;;
10529;SDS011;5313;48.834;9.228;2022-08-01T08:59:02;2.77;;;1.70;;
10529;SDS011;5313;48.834;9.228;2022-08-01T09:01:28;2.43;;;1.77;;
10529;SDS011;5313;48.834;9.228;2022-08-01T09:03:57;2.47;;;2.00;;
10529;SDS011;5313;48.834;9.228;2022-08-01T09:06:23;2.17;;;1.80;;
10529;SDS011;5313;48.834;9.228;2022-08-01T09:08:49;4.07;;;1.80;;
10529;SDS011;5313;48.834;9.228;2022-08-01T09:11:15;4.20;;;1.70;;
10529;SDS011;5313;48.834;9.228;2022-08-01T09:13:40;2.60;;;2.00;;
10529;SDS011;5313;48.834;9.228;2022-08-01T09:16:06;5.97;;;2.07;;
10529;SDS011;5313;48.834;9.228;2022-08-01T09:18:32;2.83;;;2.20;;
10529;SDS011;5313;48.834;9.228;2022-08-01T09:21:21;5.93;;;2.40;;
10529;SDS011;5313;48.834;9.228;2022-08-01T09:23:49;4.27;;;2.33;;
10529;SDS011;5313;48.834;9.228;2022-08-01T09:26:17;2.43;;;2.00;;
10529;SDS011;5313;48.834;9.228;2022-08-01T09:28:44;2.73;;;1.90;;
10529;SDS011;5313;48.834;9.228;2022-08-01T09:31:12;6.30;;;2.40;;
10529;SDS011;5313;48.834;9.228;2022-08-01T09:36:15;3.03;;;2.20;;
10529;SDS011;5313;48.834;9.228;2022-08-01T09:38:41;3.60;;;2.37;;
10529;SDS011;5313;48.834;9.228;2022-08-01T09:41:07;4.23;;;2.40;;
10529;SDS011;5313;48.834;9.228;2022-08-01T09:43:32;2.43;;;2.13;;
10529;SDS011;5313;48.834;9.228;2022-08-01T09:46:05;4.87;;;2.90;;
10529;SDS011;5313;48.834;9.228;2022-08-01T09:48:36;5.40;;;2.60;;
10529;SDS011;5313;48.834;9.228;2022-08-01T09:51:04;3.20;;;2.77;;
10529;SDS011;5313;48.834;9.228;2022-08-01T09:53:39;4.30;;;2.87;;
10529;SDS011;5313;48.834;9.228;2022-08-01T09:56:14;4.17;;;3.10;;
10529;SDS011;5313;48.834;9.228;2022-08-01T09:58:52;3.20;;;2.70;;
10529;SDS011;5313;48.834;9.228;2022-08-01T10:01:23;3.43;;;3.13;;
10529;SDS011;5313;48.834;9.228;2022-08-01T10:04:21;3.83;;;3.00;;
10529;SDS011;5313;48.834;9.228;2022-08-01T10:06:45;3.33;;;3.03;;
10529;SDS011;5313;48.834;9.228;2022-08-01T10:09:14;4.33;;;3.00;;
10529;SDS011;5313;48.834;9.228;2022-08-01T10:11:42;5.57;;;3.00;;
10529;SDS011;5313;48.834;9.228;2022-08-01T10:14:08;3.17;;;2.67;;
10529;SDS011;5313;48.834;9.228;2022-08-01T10:16:35;6.73;;;3.20;;
10529;SDS011;5313;48.834;9.228;2022-08-01T10:19:05;4.33;;;3.00;;
10529;SDS011;5313;48.834;9.228;2022-08-01T10:21:32;2.57;;;2.37;;
10529;SDS011;5313;48.834;9.228;2022-08-01T10:23:59;3.63;;;2.80;;
10529;SDS011;5313;48.834;9.228;2022-08-01T10:26:27;2.73;;;2.40;;
10529;SDS011;5313;48.834;9.228;2022-08-01T10:28:56;2.80;;;2.00;;
10529;SDS011;5313;48.834;9.228;2022-08-01T10:31:22;3.87;;;2.07;;
10529;SDS011;5313;48.834;9.228;2022-08-01T10:33:48;2.33;;;2.10;;
10529;SDS011;5313;48.834;9.228;2022-08-01T10:36:17;2.20;;;1.80;;
10529;SDS011;5313;48.834;9.228;2022-08-01T10:38:45;2.37;;;1.90;;
10529;SDS011;5313;48.834;9.228;2022-08-01T10:41:11;2.10;;;1.90;;
10529;SDS011;5313;48.834;9.228;2022-08-01T10:43:40;2.30;;;2.10;;
10529;SDS011;5313;48.834;9.228;2022-08-01T10:46:06;2.37;;;2.17;;
10529;SDS011;5313;48.834;9.228;2022-08-01T10:48:39;2.43;;;2.23;;
10529;SDS011;5313;48.834;9.228;2022-08-01T10:51:25;5.07;;;1.90;;
10529;SDS011;5313;48.834;9.228;2022-08-01T10:53:52;2.88;;;2.35;;
10529;SDS011;5313;48.834;9.228;2022-08-01T10:56:19;2.53;;;2.33;;
10529;SDS011;5313;48.834;9.228;2022-08-01T10:58:45;3.38;;;2.53;;
10529;SDS011;5313;48.834;9.228;2022-08-01T11:01:13;2.55;;;2.10;;
10529;SDS011;5313;48.834;9.228;2022-08-01T11:03:42;2.42;;;1.80;;
10529;SDS011;5313;48.834;9.228;2022-08-01T11:06:16;2.45;;;2.17;;
10529;SDS011;5313;48.834;9.228;2022-08-01T11:08:42;2.35;;;2.15;;
10529;SDS011;5313;48.834;9.228;2022-08-01T11:11:16;3.28;;;2.70;;
10529;SDS011;5313;48.834;9.228;2022-08-01T11:14:01;2.85;;;2.50;;
10529;SDS011;5313;48.834;9.228;2022-08-01T11:16:46;2.88;;;2.00;;
10529;SDS011;5313;48.834;9.228;2022-08-01T11:19:11;2.10;;;1.90;;
10529;SDS011;5313;48.834;9.228;2022-08-01T11:21:58;3.45;;;1.77;;
10529;SDS011;5313;48.834;9.228;2022-08-01T11:27:16;3.70;;;2.00;;
10529;SDS011;5313;48.834;9.228;2022-08-01T11:30:18;1.73;;;1.52;;
10529;SDS011;5313;48.834;9.228;2022-08-01T11:32:49;2.30;;;1.70;;
10529;SDS011;5313;48.834;9.228;2022-08-01T11:35:16;2.17;;;1.98;;
10529;SDS011;5313;48.834;9.228;2022-08-01T11:37:43;4.00;;;1.90;;
10529;SDS011;5313;48.834;9.228;2022-08-01T11:45:46;2.10;;;1.90;;
10529;SDS011;5313;48.834;9.228;2022-08-01T11:48:21;2.20;;;1.90;;
10529;SDS011;5313;48.834;9.228;2022-08-01T11:50:52;4.68;;;2.00;;
10529;SDS011;5313;48.834;9.228;2022-08-01T11:53:20;3.20;;;2.15;;
10529;SDS011;5313;48.834;9.228;2022-08-01T11:55:47;2.38;;;2.17;;
10529;SDS011;5313;48.834;9.228;2022-08-01T11:58:23;2.45;;;1.70;;
10529;SDS011;5313;48.834;9.228;2022-08-01T12:00:54;2.10;;;1.88;;
10529;SDS011;5313;48.834;9.228;2022-08-01T12:03:26;2.30;;;2.00;;
10529;SDS011;5313;48.834;9.228;2022-08-01T12:05:53;2.47;;;2.10;;
10529;SDS011;5313;48.834;9.228;2022-08-01T12:08:27;2.72;;;2.17;;
10529;SDS011;5313;48.834;9.228;2022-08-01T12:11:01;2.20;;;2.00;;
10529;SDS011;5313;48.834;9.228;2022-08-01T12:13:42;3.78;;;2.40;;
10529;SDS011;5313;48.834;9.228;2022-08-01T12:16:08;4.00;;;2.30;;
10529;SDS011;5313;48.834;9.228;2022-08-01T12:18:38;2.30;;;2.10;;
10529;SDS011;5313;48.834;9.228;2022-08-01T12:21:08;2.92;;;2.33;;
10529;SDS011;5313;48.834;9.228;2022-08-01T12:23:33;2.20;;;2.00;;
10529;SDS011;5313;48.834;9.228;2022-08-01T12:25:59;2.30;;;2.10;;
10529;SDS011;5313;48.834;9.228;2022-08-01T12:28:26;2.35;;;1.80;;
10529;SDS011;5313;48.834;9.228;2022-08-01T12:30:52;2.05;;;1.85;;
10529;SDS011;5313;48.834;9.228;2022-08-01T12:33:18;2.05;;;1.70;;
10529;SDS011;5313;48.834;9.228;2022-08-01T12:35:45;3.55;;;2.30;;
10529;SDS011;5313;48.834;9.228;2022-08-01T12:38:18;3.90;;;2.00;;
10529;SDS011;5313;48.834;9.228;2022-08-01T12:40:47;1.92;;;1.77;;
10529;SDS011;5313;48.834;9.228;2022-08-01T12:43:16;5.43;;;2.00;;
10529;SDS011;5313;48.834;9.228;2022-08-01T12:45:43;3.00;;;1.80;;
10529;SDS011;5313;48.834;9.228;2022-08-01T12:48:14;1.95;;;1.70;;
10529;SDS011;5313;48.834;9.228;2022-08-01T12:50:43;1.75;;;1.65;;
10529;SDS011;5313;48.834;9.228;2022-08-01T12:53:10;2.45;;;2.00;;
10529;SDS011;5313;48.834;9.228;2022-08-01T12:55:46;2.10;;;1.90;;
10529;SDS011;5313;48.834;9.228;2022-08-01T12:58:14;1.77;;;1.67;;
10529;SDS011;5313;48.834;9.228;2022-08-01T13:00:42;2.22;;;1.80;;
10529;SDS011;5313;48.834;9.228;2022-08-01T13:03:11;3.75;;;1.90;;
10529;SDS011;5313;48.834;9.228;2022-08-01T13:08:16;2.00;;;1.73;;
10529;SDS011;5313;48.834;9.228;2022-08-01T13:10:42;3.22;;;1.83;;
10529;SDS011;5313;48.834;9.228;2022-08-01T13:13:09;1.98;;;1.80;;
10529;SDS011;5313;48.834;9.228;2022-08-01T13:15:36;3.28;;;1.92;;
10529;SDS011;5313;48.834;9.228;2022-08-01T13:21:12;2.65;;;1.60;;
10529;SDS011;5313;48.834;9.228;2022-08-01T13:23:40;2.25;;;1.75;;
10529;SDS011;5313;48.834;9.228;2022-08-01T13:26:07;3.03;;;1.90;;
10529;SDS011;5313;48.834;9.228;2022-08-01T13:28:33;4.07;;;1.90;;
10529;SDS011;5313;48.834;9.228;2022-08-01T13:31:06;3.13;;;1.92;;
10529;SDS011;5313;48.834;9.228;2022-08-01T13:33:45;4.03;;;2.03;;
10529;SDS011;5313;48.834;9.228;2022-08-01T13:36:12;2.47;;;1.80;;
10529;SDS011;5313;48.834;9.228;2022-08-01T13:38:39;3.05;;;1.85;;
10529;SDS011;5313;48.834;9.228;2022-08-01T13:41:24;3.38;;;1.77;;
10529;SDS011;5313;48.834;9.228;2022-08-01T13:43:50;3.58;;;1.70;;
10529;SDS011;5313;48.834;9.228;2022-08-01T13:46:15;1.98;;;1.60;;
10529;SDS011;5313;48.834;9.228;2022-08-01T13:48:41;2.17;;;1.10;;
10529;SDS011;5313;48.834;9.228;2022-08-01T13:51:07;7.47;;;1.70;;
10529;SDS011;5313;48.834;9.228;2022-08-01T13:53:33;2.05;;;1.77;;
10529;SDS011;5313;48.834;9.228;2022-08-01T13:55:58;1.48;;;1.33;;
10529;SDS011;5313;48.834;9.228;2022-08-01T13:58:24;1.80;;;1.33;;
10529;SDS011;5313;48.834;9.228;2022-08-01T14:00:49;2.15;;;1.48;;
10529;SDS011;5313;48.834;9.228;2022-08-01T14:03:15;2.20;;;1.38;;
10529;SDS011;5313;48.834;9.228;2022-08-01T14:05:41;2.60;;;1.75;;
10529;SDS011;5313;48.834;9.228;2022-08-01T14:08:07;2.35;;;1.48;;
10529;SDS011;5313;48.834;9.228;2022-08-01T14:10:33;3.25;;;1.38;;
10529;SDS011;5313;48.834;9.228;2022-08-01T14:12:59;1.52;;;1.42;;
10529;SDS011;5313;48.834;9.228;2022-08-01T14:15:25;4.43;;;1.67;;
10529;SDS011;5313;48.834;9.228;2022-08-01T14:17:51;1.52;;;1.42;;
10529;SDS011;5313;48.834;9.228;2022-08-01T14:20:16;4.03;;;1.90;;
10529;SDS011;5313;48.834;9.228;2022-08-01T14:22:44;1.90;;;1.70;;
10529;SDS011;5313;48.834;9.228;2022-08-01T14:25:10;1.77;;;1.63;;
10529;SDS011;5313;48.834;9.228;2022-08-01T14:27:36;2.58;;;1.50;;
10529;SDS011;5313;48.834;9.228;2022-08-01T14:30:03;2.80;;;1.70;;
10529;SDS011;5313;48.834;9.228;2022-08-01T14:32:29;2.33;;;1.60;;
10529;SDS011;5313;48.834;9.228;2022-08-01T14:34:55;2.33;;;1.67;;
10529;SDS011;5313;48.834;9.228;2022-08-01T14:37:21;5.13;;;1.80;;
10529;SDS011;5313;48.834;9.228;2022-08-01T14:39:48;1.75;;;1.63;;
10529;SDS011;5313;48.834;9.228;2022-08-01T14:42:13;3.15;;;1.65;;
10529;SDS011;5313;48.834;9.228;2022-08-01T14:44:39;2.85;;;1.60;;
10529;SDS011;5313;48.834;9.228;2022-08-01T14:47:04;1.85;;;1.40;;
10529;SDS011;5313;48.834;9.228;2022-08-01T14:49:30;1.67;;;1.58;;
10529;SDS011;5313;48.834;9.228;2022-08-01T14:51:55;1.77;;;1.67;;
10529;SDS011;5313;48.834;9.228;2022-08-01T14:54:21;2.78;;;1.80;;
10529;SDS011;5313;48.834;9.228;2022-08-01T14:56:46;1.83;;;1.40;;
10529;SDS011;5313;48.834;9.228;2022-08-01T14:59:12;1.75;;;1.58;;
10529;SDS011;5313;48.834;9.228;2022-08-01T15:01:37;3.50;;;1.55;;
10529;SDS011;5313;48.834;9.228;2022-08-01T15:04:03;3.53;;;1.70;;
10529;SDS011;5313;48.834;9.228;2022-08-01T15:06:28;2.70;;;1.80;;
10529;SDS011;5313;48.834;9.228;2022-08-01T15:08:54;2.25;;;1.35;;
10529;SDS011;5313;48.834;9.228;2022-08-01T15:11:20;3.15;;;1.90;;
10529;SDS011;5313;48.834;9.228;2022-08-01T15:13:45;3.08;;;1.70;;
10529;SDS011;5313;48.834;9.228;2022-08-01T15:16:31;2.67;;;1.77;;
10529;SDS011;5313;48.834;9.228;2022-08-01T15:18:56;1.65;;;1.55;;
10529;SDS011;5313;48.834;9.228;2022-08-01T15:21:22;2.45;;;1.77;;
10529;SDS011;5313;48.834;9.228;2022-08-01T15:23:47;2.38;;;1.98;;
10529;SDS011;5313;48.834;9.228;2022-08-01T15:26:13;3.38;;;1.50;;
10529;SDS011;5313;48.834;9.228;2022-08-01T15:28:38;3.30;;;1.50;;
10529;SDS011;5313;48.834;9.228;2022-08-01T15:31:04;1.83;;;1.67;;
10529;SDS011;5313;48.834;9.228;2022-08-01T15:33:29;2.33;;;1.45;;